createdAt,value
2019-02-10T00:00:03.550Z,4.00
2019-02-10T00:01:03.565Z,4.00
2019-02-10T00:02:03.578Z,4.00
2019-02-10T00:03:03.590Z,4.00
2019-02-10T00:04:03.611Z,4.00
2019-02-10T00:05:03.641Z,4.00
2019-02-10T00:06:03.632Z,4.00
2019-02-10T00:07:03.633Z,4.00
2019-02-10T00:08:03.641Z,4.00
2019-02-10T00:09:03.654Z,4.00
2019-02-10T00:10:04.139Z,4.00
2019-02-10T00:11:03.676Z,4.00
2019-02-10T00:12:03.711Z,4.00
2019-02-10T00:13:04.502Z,4.00
2019-02-10T00:14:03.715Z,4.00
2019-02-10T00:15:03.736Z,4.00
2019-02-10T00:16:03.792Z,4.00
2019-02-10T00:17:03.748Z,4.00
2019-02-10T00:18:03.763Z,4.00
2019-02-10T00:19:03.789Z,4.00
2019-02-10T00:20:03.789Z,4.00
2019-02-10T00:21:03.802Z,4.00
2019-02-10T00:22:03.810Z,4.00
2019-02-10T00:23:03.818Z,4.00
2019-02-10T00:24:04.296Z,4.00
2019-02-10T00:25:03.856Z,4.00
2019-02-10T00:26:03.893Z,4.00
2019-02-10T00:27:04.031Z,4.00
2019-02-10T00:28:03.883Z,4.00
2019-02-10T00:29:03.926Z,4.00
2019-02-10T00:30:03.900Z,4.00
2019-02-10T00:31:03.926Z,4.00
2019-02-10T00:32:03.931Z,4.00
2019-02-10T00:33:03.943Z,4.00
2019-02-10T00:34:03.971Z,4.00
2019-02-10T00:35:04.281Z,4.00
2019-02-10T00:36:03.991Z,4.00
2019-02-10T00:37:03.985Z,4.00
2019-02-10T00:38:04.022Z,4.00
2019-02-10T00:39:04.009Z,4.00
2019-02-10T00:40:04.035Z,4.00
2019-02-10T00:41:04.042Z,4.00
2019-02-10T00:42:04.040Z,4.00
2019-02-10T00:43:04.055Z,4.00
2019-02-10T00:44:04.067Z,4.00
2019-02-10T00:45:04.076Z,4.00
2019-02-10T00:46:04.187Z,4.00
2019-02-10T00:48:04.111Z,4.00
2019-02-10T00:49:04.126Z,4.00
2019-02-10T00:50:04.615Z,4.00
2019-02-10T00:51:04.164Z,4.00
2019-02-10T00:53:04.171Z,4.00
2019-02-10T00:54:04.191Z,4.00
2019-02-10T00:55:04.212Z,4.00
2019-02-10T00:56:04.259Z,4.00
2019-02-10T00:57:04.227Z,4.00
2019-02-10T00:58:04.227Z,4.00
2019-02-10T00:59:04.243Z,4.00
2019-02-10T01:00:04.251Z,4.00
2019-02-10T01:01:04.278Z,4.00
2019-02-10T01:02:04.277Z,4.00
2019-02-10T01:03:04.295Z,4.00
2019-02-10T01:04:04.298Z,4.00
2019-02-10T01:05:04.319Z,4.00
2019-02-10T01:06:04.331Z,4.00
2019-02-10T01:07:04.343Z,4.00
2019-02-10T01:08:04.348Z,4.00
2019-02-10T01:09:04.357Z,4.00
2019-02-10T01:10:04.371Z,4.00
2019-02-10T01:11:04.383Z,4.00
2019-02-10T01:12:04.396Z,4.00
2019-02-10T01:13:04.412Z,4.00
2019-02-10T01:14:04.423Z,4.00
2019-02-10T01:15:04.428Z,4.00
2019-02-10T01:16:04.449Z,4.00
2019-02-10T01:17:04.454Z,4.00
2019-02-10T01:18:04.575Z,4.00
2019-02-10T01:19:04.476Z,4.00
2019-02-10T01:20:04.491Z,4.00
2019-02-10T01:21:04.552Z,4.00
2019-02-10T01:22:04.799Z,4.00
2019-02-10T01:23:04.782Z,4.00
2019-02-10T01:24:04.535Z,4.00
2019-02-10T01:25:04.577Z,4.00
2019-02-10T01:26:04.555Z,4.00
2019-02-10T01:27:04.568Z,4.00
2019-02-10T01:28:04.582Z,4.00
2019-02-10T01:29:04.608Z,4.00
2019-02-10T01:30:04.646Z,4.00
2019-02-10T01:31:04.613Z,4.00
2019-02-10T01:32:04.630Z,4.00
2019-02-10T01:33:04.638Z,4.00
2019-02-10T01:34:04.659Z,4.00
2019-02-10T01:35:04.669Z,4.00
2019-02-10T01:36:04.684Z,4.00
2019-02-10T01:37:04.711Z,4.00
2019-02-10T01:38:04.699Z,4.00
2019-02-10T01:39:04.709Z,4.00
2019-02-10T01:40:04.742Z,4.00
2019-02-10T01:41:04.738Z,4.00
2019-02-10T01:42:04.758Z,4.00
2019-02-10T01:43:04.787Z,4.00
2019-02-10T01:44:04.776Z,4.00
2019-02-10T01:45:04.779Z,4.00
2019-02-10T01:46:04.789Z,4.00
2019-02-10T01:47:04.801Z,4.00
2019-02-10T01:48:04.840Z,4.00
2019-02-10T01:49:04.830Z,4.00
2019-02-10T01:50:04.839Z,4.00
2019-02-10T01:51:04.849Z,4.00
2019-02-10T01:52:05.138Z,4.00
2019-02-10T01:53:04.871Z,4.00
2019-02-10T01:54:04.899Z,4.00
2019-02-10T01:55:04.902Z,4.00
2019-02-10T01:56:04.925Z,4.00
2019-02-10T01:57:04.919Z,4.00
2019-02-10T01:58:04.951Z,4.00
2019-02-10T01:59:04.965Z,4.00
2019-02-10T02:00:04.962Z,4.00
2019-02-10T02:01:04.970Z,4.00
2019-02-10T02:02:04.983Z,4.00
2019-02-10T02:03:05.014Z,4.00
2019-02-10T02:04:05.036Z,4.00
2019-02-10T02:05:05.018Z,4.00
2019-02-10T02:06:05.027Z,4.00
2019-02-10T02:07:05.039Z,4.00
2019-02-10T02:08:05.057Z,4.00
2019-02-10T02:09:05.103Z,4.00
2019-02-10T02:10:05.072Z,4.00
2019-02-10T02:11:05.093Z,4.00
2019-02-10T02:12:05.099Z,4.00
2019-02-10T02:13:05.112Z,4.00
2019-02-10T02:14:05.125Z,4.00
2019-02-10T02:15:05.134Z,4.00
2019-02-10T02:16:05.157Z,4.00
2019-02-10T02:17:05.203Z,4.00
2019-02-10T02:18:05.170Z,4.00
2019-02-10T02:19:05.288Z,4.00
2019-02-10T02:20:05.207Z,4.00
2019-02-10T02:21:05.269Z,4.00
2019-02-10T02:22:05.709Z,4.00
2019-02-10T02:23:05.228Z,4.00
2019-02-10T02:24:05.243Z,4.00
2019-02-10T02:25:05.773Z,4.00
2019-02-10T02:26:05.264Z,4.00
2019-02-10T02:27:05.276Z,4.00
2019-02-10T02:28:05.323Z,4.00
2019-02-10T02:29:05.299Z,4.00
2019-02-10T02:30:05.314Z,4.00
2019-02-10T02:31:05.326Z,4.00
2019-02-10T02:32:05.338Z,4.00
2019-02-10T02:33:05.347Z,4.00
2019-02-10T02:34:05.365Z,4.00
2019-02-10T02:35:05.388Z,4.00
2019-02-10T02:36:05.383Z,4.00
2019-02-10T02:37:08.136Z,4.00
2019-02-10T02:38:05.408Z,4.00
2019-02-10T02:39:05.417Z,4.00
2019-02-10T02:40:05.429Z,4.00
2019-02-10T02:41:05.442Z,4.00
2019-02-10T02:42:05.455Z,4.00
2019-02-10T02:43:05.466Z,4.00
2019-02-10T02:44:05.488Z,4.00
2019-02-10T02:45:05.494Z,4.00
2019-02-10T02:46:05.505Z,4.00
2019-02-10T02:47:05.513Z,4.00
2019-02-10T02:48:05.529Z,4.00
2019-02-10T02:49:05.539Z,4.00
2019-02-10T02:50:05.552Z,4.00
2019-02-10T02:51:05.862Z,4.00
2019-02-10T02:52:05.674Z,4.00
2019-02-10T02:53:05.583Z,4.00
2019-02-10T02:54:06.052Z,4.00
2019-02-10T02:55:05.610Z,4.00
2019-02-10T02:56:05.618Z,4.00
2019-02-10T02:57:05.628Z,4.00
2019-02-10T02:58:05.644Z,4.00
2019-02-10T02:59:05.652Z,4.00
2019-02-10T03:00:05.669Z,4.00
2019-02-10T03:01:05.678Z,4.00
2019-02-10T03:02:05.699Z,4.00
2019-02-10T03:03:05.700Z,4.00
2019-02-10T03:04:05.739Z,4.00
2019-02-10T03:05:05.726Z,4.00
2019-02-10T03:06:05.737Z,4.00
2019-02-10T03:07:05.752Z,4.00
2019-02-10T03:08:05.760Z,4.00
2019-02-10T03:09:05.770Z,4.00
2019-02-10T03:10:05.789Z,4.00
2019-02-10T03:11:05.792Z,4.00
2019-02-10T03:12:05.810Z,4.00
2019-02-10T03:13:05.833Z,4.00
2019-02-10T03:14:05.829Z,4.00
2019-02-10T03:15:05.848Z,4.00
2019-02-10T03:16:05.852Z,4.00
2019-02-10T03:17:05.867Z,4.00
2019-02-10T03:18:05.877Z,4.00
2019-02-10T03:19:05.900Z,4.00
2019-02-10T03:20:05.905Z,4.00
2019-02-10T03:21:05.933Z,4.00
2019-02-10T03:22:05.927Z,4.00
2019-02-10T03:23:05.949Z,4.00
2019-02-10T03:24:05.944Z,4.00
2019-02-10T03:25:06.042Z,4.00
2019-02-10T03:26:05.971Z,4.00
2019-02-10T03:27:06.112Z,4.00
2019-02-10T03:28:06.028Z,4.00
2019-02-10T03:29:06.049Z,4.00
2019-02-10T03:30:06.034Z,4.00
2019-02-10T03:31:06.034Z,4.00
2019-02-10T03:32:06.041Z,4.00
2019-02-10T03:33:06.052Z,4.00
2019-02-10T03:34:06.067Z,4.00
2019-02-10T03:35:06.079Z,4.00
2019-02-10T03:36:06.088Z,4.00
2019-02-10T03:37:06.110Z,4.00
2019-02-10T03:38:06.111Z,4.00
2019-02-10T03:39:06.125Z,4.00
2019-02-10T03:40:06.137Z,4.00
2019-02-10T03:41:06.148Z,4.00
2019-02-10T03:42:06.161Z,4.00
2019-02-10T03:43:06.171Z,4.00
2019-02-10T03:44:06.184Z,4.00
2019-02-10T03:45:06.261Z,4.00
2019-02-10T03:46:06.204Z,4.00
2019-02-10T03:47:06.218Z,4.00
2019-02-10T03:48:06.227Z,4.00
2019-02-10T03:49:06.247Z,4.00
2019-02-10T03:50:06.256Z,4.00
2019-02-10T03:51:06.946Z,4.00
2019-02-10T03:52:06.286Z,4.00
2019-02-10T03:53:06.287Z,4.00
2019-02-10T03:54:06.348Z,4.00
2019-02-10T03:55:06.309Z,4.00
2019-02-10T03:56:06.470Z,4.00
2019-02-10T03:57:06.338Z,4.00
2019-02-10T03:58:06.346Z,4.00
2019-02-10T04:00:06.367Z,4.00
2019-02-10T04:01:06.443Z,4.00
2019-02-10T04:02:06.392Z,4.00
2019-02-10T04:03:06.406Z,4.00
2019-02-10T04:04:06.413Z,4.00
2019-02-10T04:05:06.429Z,4.00
2019-02-10T04:06:06.435Z,4.00
2019-02-10T04:07:06.449Z,4.00
2019-02-10T04:08:06.465Z,4.00
2019-02-10T04:09:06.473Z,4.00
2019-02-10T04:10:06.484Z,0.00
2019-02-10T04:11:06.501Z,4.00
2019-02-10T04:12:06.509Z,4.00
2019-02-10T04:13:06.520Z,4.00
2019-02-10T04:14:06.532Z,4.00
2019-02-10T04:15:06.545Z,4.00
2019-02-10T04:16:06.555Z,4.00
2019-02-10T04:17:06.567Z,4.00
2019-02-10T04:18:06.577Z,4.00
2019-02-10T04:19:06.587Z,4.00
2019-02-10T04:20:06.612Z,4.00
2019-02-10T04:21:06.913Z,4.00
2019-02-10T04:22:06.622Z,4.00
2019-02-10T04:23:06.656Z,4.00
2019-02-10T04:24:06.650Z,4.00
2019-02-10T04:25:06.657Z,4.00
2019-02-10T04:26:06.666Z,4.00
2019-02-10T04:27:06.677Z,4.00
2019-02-10T04:28:06.692Z,4.00
2019-02-10T04:29:06.698Z,4.00
2019-02-10T04:30:06.712Z,4.00
2019-02-10T04:31:07.180Z,4.00
2019-02-10T04:32:06.740Z,4.00
2019-02-10T04:33:06.778Z,4.00
2019-02-10T04:34:06.780Z,4.00
2019-02-10T04:35:06.774Z,4.00
2019-02-10T04:36:06.785Z,4.00
2019-02-10T04:37:06.796Z,4.00
2019-02-10T04:38:06.802Z,4.00
2019-02-10T04:39:06.815Z,4.00
2019-02-10T04:40:06.842Z,4.00
2019-02-10T04:41:06.835Z,4.00
2019-02-10T04:42:06.847Z,4.00
2019-02-10T04:43:06.862Z,4.00
2019-02-10T04:44:06.894Z,4.00
2019-02-10T04:45:06.884Z,4.00
2019-02-10T04:46:06.893Z,4.00
2019-02-10T04:47:06.934Z,4.00
2019-02-10T04:48:06.915Z,4.00
2019-02-10T04:49:06.926Z,4.00
2019-02-10T04:50:06.947Z,4.00
2019-02-10T04:51:07.393Z,4.00
2019-02-10T04:52:06.967Z,4.00
2019-02-10T04:53:09.929Z,4.00
2019-02-10T04:54:06.984Z,4.00
2019-02-10T04:55:07.056Z,4.00
2019-02-10T04:56:07.778Z,4.00
2019-02-10T04:57:09.888Z,4.00
2019-02-10T04:58:07.874Z,4.00
2019-02-10T04:59:10.336Z,4.00
2019-02-10T05:00:07.969Z,4.00
2019-02-10T05:01:08.137Z,4.00
2019-02-10T05:02:10.042Z,4.00
2019-02-10T05:03:07.091Z,4.00
2019-02-10T05:04:07.112Z,4.00
2019-02-10T05:05:07.109Z,4.00
2019-02-10T05:06:07.126Z,4.00
2019-02-10T05:07:07.154Z,4.00
2019-02-10T05:08:07.145Z,4.00
2019-02-10T05:09:07.154Z,4.00
2019-02-10T05:10:07.165Z,4.00
2019-02-10T05:11:07.197Z,4.00
2019-02-10T05:12:07.192Z,4.00
2019-02-10T05:13:07.205Z,4.00
2019-02-10T05:14:07.215Z,4.00
2019-02-10T05:15:07.225Z,4.00
2019-02-10T05:16:07.245Z,4.00
2019-02-10T05:17:07.248Z,4.00
2019-02-10T05:18:07.259Z,4.00
2019-02-10T05:19:07.267Z,4.00
2019-02-10T05:20:07.282Z,4.00
2019-02-10T05:21:07.297Z,4.00
2019-02-10T05:22:07.303Z,4.00
2019-02-10T05:23:07.318Z,4.00
2019-02-10T05:24:07.364Z,4.00
2019-02-10T05:25:07.337Z,4.00
2019-02-10T05:26:07.348Z,4.00
2019-02-10T05:27:07.366Z,4.00
2019-02-10T05:28:07.371Z,4.00
2019-02-10T05:29:07.389Z,4.00
2019-02-10T05:31:07.715Z,4.00
2019-02-10T05:32:07.454Z,4.00
2019-02-10T05:33:07.427Z,4.00
2019-02-10T05:34:07.540Z,4.00
2019-02-10T05:35:07.502Z,4.00
2019-02-10T05:36:07.569Z,4.00
2019-02-10T05:37:07.472Z,4.00
2019-02-10T05:38:07.484Z,4.00
2019-02-10T05:39:07.503Z,4.00
2019-02-10T05:40:07.517Z,4.00
2019-02-10T05:41:07.541Z,4.00
2019-02-10T05:42:07.535Z,4.00
2019-02-10T05:43:07.530Z,4.00
2019-02-10T05:44:07.544Z,4.00
2019-02-10T05:45:07.622Z,4.00
2019-02-10T05:46:07.578Z,4.00
2019-02-10T05:47:07.576Z,4.00
2019-02-10T05:48:07.587Z,4.00
2019-02-10T05:49:07.598Z,4.00
2019-02-10T05:50:07.622Z,4.00
2019-02-10T05:51:07.646Z,4.00
2019-02-10T05:52:07.632Z,4.00
2019-02-10T05:53:07.662Z,4.00
2019-02-10T05:54:07.655Z,4.00
2019-02-10T05:55:07.667Z,4.00
2019-02-10T05:56:07.676Z,4.00
2019-02-10T05:57:07.689Z,4.00
2019-02-10T05:58:07.709Z,4.00
2019-02-10T05:59:08.139Z,4.00
2019-02-10T06:00:07.724Z,4.00
2019-02-10T06:01:07.732Z,4.00
2019-02-10T06:02:07.755Z,4.00
2019-02-10T06:03:07.908Z,4.00
2019-02-10T06:04:07.768Z,4.00
2019-02-10T06:05:07.783Z,4.00
2019-02-10T06:06:07.855Z,4.00
2019-02-10T06:08:13.510Z,4.00
2019-02-10T06:09:07.822Z,4.00
2019-02-10T06:10:07.831Z,4.00
2019-02-10T06:11:07.842Z,4.00
2019-02-10T06:12:07.855Z,4.00
2019-02-10T06:13:07.871Z,4.00
2019-02-10T06:14:07.880Z,4.00
2019-02-10T06:15:07.885Z,4.00
2019-02-10T06:16:07.901Z,4.00
2019-02-10T06:17:07.911Z,4.00
2019-02-10T06:18:07.925Z,4.00
2019-02-10T06:19:07.949Z,4.00
2019-02-10T06:20:08.244Z,4.00
2019-02-10T06:21:07.962Z,4.00
2019-02-10T06:22:07.968Z,4.00
2019-02-10T06:23:07.977Z,4.00
2019-02-10T06:24:07.988Z,4.00
2019-02-10T06:25:08.006Z,4.00
2019-02-10T06:26:08.014Z,4.00
2019-02-10T06:27:08.020Z,4.00
2019-02-10T06:28:08.039Z,4.00
2019-02-10T06:29:08.043Z,4.00
2019-02-10T06:30:08.056Z,4.00
2019-02-10T06:31:08.064Z,4.00
2019-02-10T06:32:08.084Z,4.00
2019-02-10T06:34:08.100Z,4.00
2019-02-10T06:35:08.114Z,4.00
2019-02-10T06:36:08.122Z,4.00
2019-02-10T06:37:08.129Z,4.00
2019-02-10T06:38:08.313Z,4.00
2019-02-10T06:39:08.166Z,4.00
2019-02-10T06:40:08.164Z,0.00
2019-02-10T06:41:08.224Z,4.00
2019-02-10T06:42:08.194Z,4.00
2019-02-10T06:43:08.208Z,4.00
2019-02-10T06:44:08.212Z,4.00
2019-02-10T06:45:08.230Z,4.00
2019-02-10T06:46:08.237Z,4.00
2019-02-10T06:47:08.263Z,8.00
2019-02-10T06:48:08.251Z,8.00
2019-02-10T06:49:08.263Z,4.00
2019-02-10T06:50:08.271Z,4.00
2019-02-10T06:51:08.286Z,4.00
2019-02-10T06:52:08.295Z,4.00
2019-02-10T06:53:08.304Z,4.00
2019-02-10T06:54:08.316Z,4.00
2019-02-10T06:55:08.343Z,8.00
2019-02-10T06:56:08.338Z,8.00
2019-02-10T06:57:08.384Z,8.00
2019-02-10T06:58:08.365Z,4.00
2019-02-10T06:59:08.372Z,4.00
2019-02-10T07:00:08.383Z,8.00
2019-02-10T07:01:08.397Z,12.00
2019-02-10T07:02:08.411Z,8.00
2019-02-10T07:03:08.424Z,12.00
2019-02-10T07:04:08.437Z,12.00
2019-02-10T07:05:08.449Z,12.00
2019-02-10T07:06:08.447Z,16.00
2019-02-10T07:07:08.460Z,20.00
2019-02-10T07:08:08.481Z,16.00
2019-02-10T07:09:08.533Z,16.00
2019-02-10T07:10:08.846Z,16.00
2019-02-10T07:11:08.509Z,16.00
2019-02-10T07:12:08.533Z,20.00
2019-02-10T07:13:08.566Z,16.00
2019-02-10T07:14:08.536Z,16.00
2019-02-10T07:15:08.563Z,16.00
2019-02-10T07:16:08.561Z,28.00
2019-02-10T07:17:08.572Z,32.00
2019-02-10T07:18:08.583Z,36.00
2019-02-10T07:19:08.596Z,40.00
2019-02-10T07:20:08.608Z,48.00
2019-02-10T07:21:08.626Z,52.00
2019-02-10T07:22:08.631Z,60.00
2019-02-10T07:23:08.645Z,64.00
2019-02-10T07:24:08.651Z,84.00
2019-02-10T07:25:08.674Z,88.00
2019-02-10T07:26:08.675Z,84.00
2019-02-10T07:27:08.701Z,72.00
2019-02-10T07:28:08.697Z,72.00
2019-02-10T07:29:08.711Z,84.00
2019-02-10T07:30:08.720Z,80.00
2019-02-10T07:31:08.732Z,84.00
2019-02-10T07:32:08.749Z,80.00
2019-02-10T07:33:08.767Z,76.00
2019-02-10T07:34:08.770Z,84.00
2019-02-10T07:35:08.786Z,96.00
2019-02-10T07:36:08.789Z,100.00
2019-02-10T07:37:08.812Z,108.00
2019-02-10T07:39:08.831Z,112.00
2019-02-10T07:40:08.891Z,116.00
2019-02-10T07:41:09.263Z,108.00
2019-02-10T07:42:08.913Z,96.00
2019-02-10T07:43:08.880Z,100.00
2019-02-10T07:44:08.883Z,100.00
2019-02-10T07:45:08.893Z,108.00
2019-02-10T07:46:08.904Z,112.00
2019-02-10T07:47:08.968Z,108.00
2019-02-10T07:48:08.940Z,112.00
2019-02-10T07:49:08.939Z,120.00
2019-02-10T07:50:08.956Z,140.00
2019-02-10T07:51:08.962Z,156.00
2019-02-10T07:52:09.008Z,176.00
2019-02-10T07:53:08.983Z,180.00
2019-02-10T07:54:09.004Z,184.00
2019-02-10T07:55:09.008Z,200.00
2019-02-10T07:56:09.020Z,220.00
2019-02-10T07:57:09.043Z,236.00
2019-02-10T07:58:09.048Z,240.00
2019-02-10T07:59:09.063Z,232.00
2019-02-10T08:00:09.070Z,228.00
2019-02-10T08:01:09.085Z,236.00
2019-02-10T08:02:09.094Z,256.00
2019-02-10T08:03:09.112Z,260.00
2019-02-10T08:04:09.115Z,212.00
2019-02-10T08:05:09.129Z,192.00
2019-02-10T08:06:09.140Z,188.00
2019-02-10T08:07:09.308Z,184.00
2019-02-10T08:08:09.169Z,180.00
2019-02-10T08:09:09.169Z,184.00
2019-02-10T08:10:09.196Z,200.00
2019-02-10T08:11:09.250Z,192.00
2019-02-10T08:12:09.212Z,172.00
2019-02-10T08:13:09.260Z,160.00
2019-02-10T08:14:09.236Z,148.00
2019-02-10T08:15:09.252Z,140.00
2019-02-10T08:16:09.254Z,132.00
2019-02-10T08:17:09.273Z,144.00
2019-02-10T08:18:09.278Z,152.00
2019-02-10T08:19:09.313Z,192.00
2019-02-10T08:20:09.305Z,188.00
2019-02-10T08:21:09.309Z,192.00
2019-02-10T08:22:09.332Z,200.00
2019-02-10T08:23:09.342Z,208.00
2019-02-10T08:24:09.348Z,216.00
2019-02-10T08:25:09.369Z,216.00
2019-02-10T08:26:09.384Z,212.00
2019-02-10T08:27:09.395Z,212.00
2019-02-10T08:28:09.392Z,208.00
2019-02-10T08:29:09.403Z,204.00
2019-02-10T08:30:09.418Z,208.00
2019-02-10T08:31:09.431Z,236.00
2019-02-10T08:32:09.438Z,228.00
2019-02-10T08:33:09.456Z,232.00
2019-02-10T08:34:09.464Z,232.00
2019-02-10T08:35:09.477Z,248.00
2019-02-10T08:36:09.490Z,244.00
2019-02-10T08:37:09.603Z,264.00
2019-02-10T08:38:09.519Z,284.00
2019-02-10T08:39:09.525Z,320.00
2019-02-10T08:40:09.535Z,340.00
2019-02-10T08:41:09.544Z,328.00
2019-02-10T08:42:09.561Z,328.00
2019-02-10T08:43:09.576Z,300.00
2019-02-10T08:44:09.580Z,288.00
2019-02-10T08:45:09.600Z,268.00
2019-02-10T08:46:09.611Z,260.00
2019-02-10T08:47:09.656Z,260.00
2019-02-10T08:48:09.640Z,284.00
2019-02-10T08:49:09.641Z,300.00
2019-02-10T08:50:09.651Z,328.00
2019-02-10T08:51:09.698Z,360.00
2019-02-10T08:52:09.692Z,508.00
2019-02-10T08:53:09.687Z,460.00
2019-02-10T08:54:09.702Z,460.00
2019-02-10T08:55:09.709Z,404.00
2019-02-10T08:56:09.721Z,344.00
2019-02-10T08:57:09.744Z,308.00
2019-02-10T08:58:09.749Z,284.00
2019-02-10T08:59:09.759Z,260.00
2019-02-10T09:00:09.771Z,316.00
2019-02-10T09:01:09.788Z,308.00
2019-02-10T09:02:09.796Z,348.00
2019-02-10T09:03:10.863Z,388.00
2019-02-10T09:04:09.820Z,444.00
2019-02-10T09:05:09.827Z,520.00
2019-02-10T09:06:09.838Z,468.00
2019-02-10T09:07:09.868Z,348.00
2019-02-10T09:08:09.866Z,356.00
2019-02-10T09:09:09.875Z,344.00
2019-02-10T09:10:09.900Z,388.00
2019-02-10T09:12:09.932Z,504.00
2019-02-10T09:13:09.930Z,432.00
2019-02-10T09:14:10.279Z,400.00
2019-02-10T09:15:09.945Z,420.00
2019-02-10T09:16:09.964Z,440.00
2019-02-10T09:17:09.978Z,400.00
2019-02-10T09:18:10.003Z,424.00
2019-02-10T09:19:10.004Z,352.00
2019-02-10T09:20:10.010Z,312.00
2019-02-10T09:21:10.024Z,308.00
2019-02-10T09:22:10.040Z,336.00
2019-02-10T09:23:10.043Z,372.00
2019-02-10T09:24:10.092Z,360.00
2019-02-10T09:25:10.073Z,384.00
2019-02-10T09:26:10.081Z,424.00
2019-02-10T09:27:10.088Z,460.00
2019-02-10T09:28:10.102Z,604.00
2019-02-10T09:29:10.114Z,616.00
2019-02-10T09:30:10.132Z,656.00
2019-02-10T09:31:10.143Z,552.00
2019-02-10T09:32:10.162Z,480.00
2019-02-10T09:33:10.169Z,452.00
2019-02-10T09:34:10.175Z,448.00
2019-02-10T09:35:10.183Z,420.00
2019-02-10T09:36:10.202Z,444.00
2019-02-10T09:37:10.215Z,468.00
2019-02-10T09:38:10.230Z,440.00
2019-02-10T09:39:11.135Z,464.00
2019-02-10T09:40:10.248Z,568.00
2019-02-10T09:41:10.279Z,720.00
2019-02-10T09:42:10.273Z,860.00
2019-02-10T09:43:10.283Z,884.00
2019-02-10T09:44:10.303Z,1064.00
2019-02-10T09:45:10.308Z,996.00
2019-02-10T09:46:10.317Z,1064.00
2019-02-10T09:47:10.328Z,940.00
2019-02-10T09:48:10.361Z,704.00
2019-02-10T09:49:10.367Z,684.00
2019-02-10T09:50:11.277Z,700.00
2019-02-10T09:51:10.380Z,656.00
2019-02-10T09:52:10.392Z,692.00
2019-02-10T09:53:10.408Z,820.00
2019-02-10T09:54:10.418Z,772.00
2019-02-10T09:55:10.437Z,796.00
2019-02-10T09:56:10.749Z,636.00
2019-02-10T09:57:10.473Z,684.00
2019-02-10T09:58:10.514Z,552.00
2019-02-10T09:59:10.474Z,548.00
2019-02-10T10:00:10.490Z,620.00
2019-02-10T10:01:10.500Z,552.00
2019-02-10T10:02:10.533Z,516.00
2019-02-10T10:03:10.529Z,540.00
2019-02-10T10:04:10.541Z,584.00
2019-02-10T10:05:10.559Z,680.00
2019-02-10T10:06:10.636Z,724.00
2019-02-10T10:07:10.591Z,900.00
2019-02-10T10:08:10.590Z,992.00
2019-02-10T10:09:18.743Z,916.00
2019-02-10T10:10:10.613Z,796.00
2019-02-10T10:11:10.631Z,728.00
2019-02-10T10:12:10.678Z,744.00
2019-02-10T10:13:10.652Z,772.00
2019-02-10T10:14:10.992Z,676.00
2019-02-10T10:15:10.673Z,644.00
2019-02-10T10:16:10.708Z,736.00
2019-02-10T10:17:10.708Z,752.00
2019-02-10T10:18:10.707Z,928.00
2019-02-10T10:19:10.721Z,836.00
2019-02-10T10:20:11.083Z,804.00
2019-02-10T10:21:10.755Z,848.00
2019-02-10T10:22:10.770Z,756.00
2019-02-10T10:23:10.769Z,792.00
2019-02-10T10:24:10.840Z,772.00
2019-02-10T10:25:10.934Z,744.00
2019-02-10T10:26:11.247Z,736.00
2019-02-10T10:27:10.880Z,716.00
2019-02-10T10:28:10.851Z,608.00
2019-02-10T10:29:10.858Z,564.00
2019-02-10T10:30:10.858Z,716.00
2019-02-10T10:31:10.869Z,864.00
2019-02-10T10:32:10.883Z,940.00
2019-02-10T10:33:10.896Z,996.00
2019-02-10T10:34:10.922Z,984.00
2019-02-10T10:35:10.921Z,900.00
2019-02-10T10:36:10.951Z,840.00
2019-02-10T10:37:10.967Z,808.00
2019-02-10T10:38:10.953Z,720.00
2019-02-10T10:39:11.017Z,604.00
2019-02-10T10:40:10.981Z,568.00
2019-02-10T10:41:11.001Z,612.00
2019-02-10T10:42:11.006Z,632.00
2019-02-10T10:43:11.142Z,600.00
2019-02-10T10:44:11.062Z,592.00
2019-02-10T10:45:11.050Z,548.00
2019-02-10T10:46:11.066Z,564.00
2019-02-10T10:47:11.073Z,648.00
2019-02-10T10:48:11.087Z,760.00
2019-02-10T10:49:11.096Z,936.00
2019-02-10T10:50:11.108Z,1040.00
2019-02-10T10:51:11.120Z,1068.00
2019-02-10T10:52:11.133Z,1164.00
2019-02-10T10:53:11.142Z,1260.00
2019-02-10T10:54:11.157Z,1236.00
2019-02-10T10:55:11.163Z,1156.00
2019-02-10T10:56:11.322Z,1128.00
2019-02-10T10:57:11.190Z,1140.00
2019-02-10T10:58:11.211Z,1092.00
2019-02-10T10:59:11.223Z,1004.00
2019-02-10T11:00:11.231Z,940.00
2019-02-10T11:01:11.240Z,820.00
2019-02-10T11:02:11.255Z,748.00
2019-02-10T11:03:11.279Z,700.00
2019-02-10T11:04:11.279Z,704.00
2019-02-10T11:05:11.292Z,692.00
2019-02-10T11:06:11.306Z,660.00
2019-02-10T11:07:11.314Z,632.00
2019-02-10T11:08:11.332Z,644.00
2019-02-10T11:09:11.345Z,708.00
2019-02-10T11:10:11.357Z,676.00
2019-02-10T11:11:11.361Z,612.00
2019-02-10T11:12:11.378Z,596.00
2019-02-10T11:13:11.392Z,608.00
2019-02-10T11:14:11.404Z,616.00
2019-02-10T11:15:11.415Z,644.00
2019-02-10T11:16:11.469Z,616.00
2019-02-10T11:17:11.435Z,568.00
2019-02-10T11:18:11.448Z,604.00
2019-02-10T11:19:11.472Z,576.00
2019-02-10T11:20:11.488Z,636.00
2019-02-10T11:21:11.491Z,744.00
2019-02-10T11:22:11.504Z,776.00
2019-02-10T11:23:11.510Z,792.00
2019-02-10T11:24:11.585Z,692.00
2019-02-10T11:25:11.544Z,652.00
2019-02-10T11:26:12.050Z,600.00
2019-02-10T11:27:11.563Z,564.00
2019-02-10T11:28:11.574Z,604.00
2019-02-10T11:29:11.584Z,648.00
2019-02-10T11:30:11.604Z,696.00
2019-02-10T11:31:11.609Z,640.00
2019-02-10T11:32:11.627Z,664.00
2019-02-10T11:33:11.743Z,648.00
2019-02-10T11:34:11.657Z,584.00
2019-02-10T11:35:11.676Z,552.00
2019-02-10T11:36:11.746Z,544.00
2019-02-10T11:37:11.686Z,524.00
2019-02-10T11:38:11.712Z,604.00
2019-02-10T11:39:11.726Z,676.00
2019-02-10T11:40:11.778Z,720.00
2019-02-10T11:41:11.734Z,740.00
2019-02-10T11:42:11.747Z,908.00
2019-02-10T11:43:11.768Z,936.00
2019-02-10T11:44:11.922Z,832.00
2019-02-10T11:45:12.417Z,732.00
2019-02-10T11:46:11.904Z,720.00
2019-02-10T11:47:11.816Z,668.00
2019-02-10T11:48:11.882Z,676.00
2019-02-10T11:49:11.880Z,552.00
2019-02-10T11:51:11.866Z,640.00
2019-02-10T11:52:11.877Z,780.00
2019-02-10T11:53:11.966Z,892.00
2019-02-10T11:54:11.897Z,1072.00
2019-02-10T11:55:11.909Z,884.00
2019-02-10T11:56:11.923Z,708.00
2019-02-10T11:57:11.937Z,684.00
2019-02-10T11:58:11.948Z,804.00
2019-02-10T11:59:11.957Z,760.00
2019-02-10T12:00:12.338Z,976.00
2019-02-10T12:01:12.035Z,968.00
2019-02-10T12:02:11.998Z,1208.00
2019-02-10T12:03:12.016Z,1580.00
2019-02-10T12:04:12.017Z,1716.00
2019-02-10T12:05:12.036Z,1456.00
2019-02-10T12:06:12.044Z,1120.00
2019-02-10T12:07:12.058Z,1332.00
2019-02-10T12:08:12.069Z,1528.00
2019-02-10T12:09:12.080Z,1388.00
2019-02-10T12:10:12.107Z,1356.00
2019-02-10T12:11:12.106Z,1148.00
2019-02-10T12:12:12.118Z,1064.00
2019-02-10T12:13:12.133Z,1380.00
2019-02-10T12:14:12.150Z,1556.00
2019-02-10T12:15:12.159Z,1232.00
2019-02-10T12:16:12.168Z,1196.00
2019-02-10T12:17:12.194Z,1336.00
2019-02-10T12:18:12.195Z,1240.00
2019-02-10T12:19:12.225Z,892.00
2019-02-10T12:20:12.562Z,800.00
2019-02-10T12:21:12.265Z,1012.00
2019-02-10T12:22:12.253Z,1136.00
2019-02-10T12:23:12.337Z,1604.00
2019-02-10T12:24:12.293Z,1520.00
2019-02-10T12:25:12.300Z,1568.00
2019-02-10T12:26:12.295Z,1544.00
2019-02-10T12:27:12.305Z,1096.00
2019-02-10T12:28:12.319Z,1152.00
2019-02-10T12:29:12.337Z,1248.00
2019-02-10T12:30:12.402Z,1212.00
2019-02-10T12:31:12.358Z,1004.00
2019-02-10T12:32:12.379Z,784.00
2019-02-10T12:33:12.825Z,784.00
2019-02-10T12:34:12.393Z,836.00
2019-02-10T12:35:12.427Z,956.00
2019-02-10T12:36:12.430Z,976.00
2019-02-10T12:37:12.432Z,976.00
2019-02-10T12:38:12.459Z,776.00
2019-02-10T12:39:12.463Z,528.00
2019-02-10T12:40:12.471Z,596.00
2019-02-10T12:41:12.482Z,636.00
2019-02-10T12:42:12.498Z,508.00
2019-02-10T12:43:12.507Z,344.00
2019-02-10T12:44:12.522Z,524.00
2019-02-10T12:45:12.581Z,980.00
2019-02-10T12:46:12.546Z,824.00
2019-02-10T12:47:12.559Z,844.00
2019-02-10T12:48:12.594Z,924.00
2019-02-10T12:49:12.587Z,1156.00
2019-02-10T12:50:12.650Z,1140.00
2019-02-10T12:51:12.661Z,1132.00
2019-02-10T12:52:12.789Z,1348.00
2019-02-10T12:53:12.975Z,1396.00
2019-02-10T12:54:12.712Z,1464.00
2019-02-10T12:55:12.725Z,1648.00
2019-02-10T12:56:12.671Z,1780.00
2019-02-10T12:57:12.700Z,1876.00
2019-02-10T12:58:12.694Z,1916.00
2019-02-10T12:59:12.709Z,1900.00
2019-02-10T13:00:12.723Z,1860.00
2019-02-10T13:01:12.745Z,1816.00
2019-02-10T13:02:12.753Z,1832.00